• Join FlightAware (Why Join?)
  • Login
  • US Flag 
01:00AM EDT


 

Airport Tracker/Info


-or-


 

Live Flight TrackerFlight Track Log ✈ ASQ5963 ✈ 05-Jul-2013 ✈ KALB - KEWR

Flight Track Log - Related Links

Times and Time Zones

All times are in EDT time to prevent confusion due to time zone crossing. See the ASQ5963 flight status page for this flight to view local times or setup timezone preferences in your user account.

Time Position Orientation Groundspeed Altitude Reporting Facility
EDT Latitude Longitude Course Direction KTS MPH feet Rate Location/Type
03:34PM 42.7214 -73.8078 190° South 159 183 1,400  Level Boston Center
03:35PM 42.6547 -73.8064 179° South 217 250 3,200 1,980 Climbing Boston Center
03:37PM 42.5629 -73.8362 194° South  Level Estimated
03:37PM 42.5750 -73.8469 201° Southwest 258 297 6,600  Level Boston Center
03:38PM 42.5089 -73.8795 211° Southwest  Level FlightAware Approximate
03:38PM 42.5164 -73.8794 202° Southwest 252 290 9,000  Level Boston Center
03:39PM 42.4467 -73.8897 190° South  Level Estimated
03:39PM 42.4303 -73.9281 203° Southwest 286 329 10,500  Level Boston Center
03:40PM 42.3358 -73.9764 201° Southwest 322 371 12,400 1,740 Climbing Boston Center
03:41PM 42.2539 -74.0164 200° South 345 397 14,000 1,680 Climbing Boston Center
03:42PM 42.1553 -74.0672 201° Southwest 350 403 15,800 960 Climbing Boston Center
03:43PM 42.0544 -74.1150 199° South 364 419 16,000 60 Climbing Boston Center
03:44PM 41.9683 -74.1600 201° Southwest 376 433 16,000 -180 Level Boston Center
03:45PM 41.8572 -74.2072 198° South 376 433 15,700 -840 Descending Boston Center
03:46PM 41.7692 -74.2439 197° South 376 433 14,400 -1,620 Descending Boston Center
03:47PM 41.6600 -74.2881 197° South 376 433 12,500 -1,920 Descending Boston Center
03:48PM 41.5678 -74.3269 198° South 365 420 10,600 -1,560 Descending Boston Center
03:50PM 41.4167 -74.4000 200° South 276 318 7,900 -1,200 Descending New York TRACON
03:51PM 41.3333 -74.4167 189° South 265 305 7,000 -900 Descending New York TRACON
03:52PM 41.2667 -74.4167 180° South 271 312 6,200 -780 Descending New York TRACON
03:53PM 41.2000 -74.3667 151° Southeast 276 318 5,500 -600 Descending New York TRACON
03:54PM 41.1333 -74.3000 143° Southeast 265 305 5,000 -420 Descending New York TRACON
03:55PM 41.0667 -74.2500 151° Southeast 265 305 4,700 -480 Descending New York TRACON
03:56PM 41.0167 -74.2000 143° Southeast 262 302 4,100 -480 Descending New York TRACON
03:57PM 40.9500 -74.1500 150° Southeast 255 293 3,900 -600 Descending New York TRACON
03:58PM 40.9000 -74.1167 153° Southeast 242 278 3,000 -600 Descending New York TRACON
03:59PM 40.8500 -74.0833 153° Southeast 203 234 2,700 -300 Descending New York TRACON